Time;durP1;ratioP1;P1;durP2;ratioP2;P2;SDS_P1;SDS_P2;PMS_P1;PMS_P2;Temp;Humidity;BMP_temperature;BMP_pressure;BME280_temperature;BME280_humidity;BME280_pressure;Samples;Min_cycle;Max_cycle;Signal;HPM_P1;HPM_P2
2022/04/14 00:01:47;;;;;;;;;10.00;9.00;;;;;;;;5105356;27;52043;-54
2022/04/14 00:04:12;;;;;;;;;11.00;11.00;;;;;;;;5111722;27;51154;-53
2022/04/14 00:06:38;;;;;;;;;11.00;10.67;;;;;;;;5102199;27;52267;-53
2022/04/14 00:09:03;;;;;;;;;10.00;10.00;;;;;;;;5087490;27;51119;-55
2022/04/14 00:11:28;;;;;;;;;6.00;5.67;;;;;;;;5110404;27;51056;-56
2022/04/14 00:13:54;;;;;;;;;9.67;9.67;;;;;;;;5110310;27;51237;-54
2022/04/14 00:16:19;;;;;;;;;11.00;10.67;;;;;;;;5109386;27;51209;-55
2022/04/14 00:18:44;;;;;;;;;9.00;8.00;;;;;;;;5104330;27;51050;-51
2022/04/14 00:21:09;;;;;;;;;10.00;9.00;;;;;;;;5107540;27;52001;-54
2022/04/14 00:23:35;;;;;;;;;9.67;8.00;;;;;;;;5107249;27;50997;-54
2022/04/14 00:26:00;;;;;;;;;7.33;7.33;;;;;;;;5088452;27;51077;-56
2022/04/14 00:28:25;;;;;;;;;10.67;10.00;;;;;;;;5114650;27;51253;-55
2022/04/14 00:30:50;;;;;;;;;8.00;8.00;;;;;;;;5107106;27;51894;-53
2022/04/14 00:33:16;;;;;;;;;10.00;9.00;;;;;;;;5108861;27;51149;-51
2022/04/14 00:35:41;;;;;;;;;7.33;7.33;;;;;;;;5108087;27;51114;-54
2022/04/14 00:38:06;;;;;;;;;8.00;8.00;;;;;;;;5110331;27;51247;-52
2022/04/14 00:40:31;;;;;;;;;9.67;9.67;;;;;;;;5113323;27;51074;-56
2022/04/14 00:42:57;;;;;;;;;9.67;8.67;;;;;;;;5107145;27;51232;-54
2022/04/14 00:45:22;;;;;;;;;10.00;10.00;;;;;;;;5103450;27;51344;-52
2022/04/14 00:47:48;;;;;;;;;11.00;11.00;;;;;;;;5111053;27;51121;-53
2022/04/14 00:50:13;;;;;;;;;11.00;10.67;;;;;;;;5105423;27;51447;-54
2022/04/14 00:52:45;;;;;;;;;10.67;9.67;;;;;;;;5105134;27;51150;-55
2022/04/14 00:55:10;;;;;;;;;10.00;10.00;;;;;;;;5113204;27;51243;-54
2022/04/14 00:57:36;;;;;;;;;11.33;11.33;;;;;;;;5093699;27;51137;-54
2022/04/14 01:00:01;;;;;;;;;11.33;11.33;;;;;;;;5110697;27;52135;-55
2022/04/14 01:02:27;;;;;;;;;6.00;5.00;;;;;;;;5111684;27;51141;-56
2022/04/14 01:04:52;;;;;;;;;11.67;11.67;;;;;;;;5111349;27;51118;-55
2022/04/14 01:07:18;;;;;;;;;13.33;12.00;;;;;;;;5108641;27;51024;-50
2022/04/14 01:09:45;;;;;;;;;10.33;10.00;;;;;;;;5111910;27;52982;-54
2022/04/14 01:12:10;;;;;;;;;12.00;11.00;;;;;;;;5107840;27;51153;-54
2022/04/14 01:14:36;;;;;;;;;3.33;3.00;;;;;;;;5113133;27;51135;-54
2022/04/14 01:17:03;;;;;;;;;9.33;9.00;;;;;;;;5084006;27;51246;-54
2022/04/14 01:19:29;;;;;;;;;10.00;10.00;;;;;;;;5096301;27;50940;-55
2022/04/14 01:22:09;;;;;;;;;9.67;9.33;;;;;;;;5105133;27;51344;-55
2022/04/14 01:24:35;;;;;;;;;11.00;11.00;;;;;;;;5102913;27;51233;-56
2022/04/14 01:27:01;;;;;;;;;11.00;10.33;;;;;;;;5104485;27;51298;-54
2022/04/14 01:29:27;;;;;;;;;10.00;10.00;;;;;;;;5103100;27;51685;-54
2022/04/14 01:31:52;;;;;;;;;10.33;10.33;;;;;;;;5105614;27;51183;-56
2022/04/14 01:34:18;;;;;;;;;11.67;11.00;;;;;;;;5115933;27;51063;-54
2022/04/14 01:36:43;;;;;;;;;10.00;9.33;;;;;;;;5097960;27;51244;-55
2022/04/14 01:39:10;;;;;;;;;11.00;10.00;;;;;;;;5113574;27;51967;-58
2022/04/14 01:41:36;;;;;;;;;11.33;11.00;;;;;;;;5107948;27;51103;-56
2022/04/14 01:44:01;;;;;;;;;9.25;9.25;;;;;;;;5114116;27;51011;-54
2022/04/14 01:46:26;;;;;;;;;13.00;12.00;;;;;;;;5111740;27;51152;-54
2022/04/14 01:48:51;;;;;;;;;12.75;11.75;;;;;;;;5115359;27;52272;-51
2022/04/14 01:51:17;;;;;;;;;12.00;11.00;;;;;;;;5106654;27;51110;-53
2022/04/14 01:53:42;;;;;;;;;11.75;11.00;;;;;;;;5107331;27;51101;-55
2022/04/14 01:56:07;;;;;;;;;11.00;10.00;;;;;;;;5103211;27;51080;-55
2022/04/14 01:58:32;;;;;;;;;14.50;13.00;;;;;;;;5108192;27;51718;-55
2022/04/14 02:00:57;;;;;;;;;14.25;14.25;;;;;;;;5111033;27;51009;-57
2022/04/14 02:03:23;;;;;;;;;12.00;11.50;;;;;;;;5103618;27;51111;-53
2022/04/14 02:05:48;;;;;;;;;13.00;13.00;;;;;;;;5106901;27;51785;-57
2022/04/14 02:08:13;;;;;;;;;13.75;13.75;;;;;;;;5113669;27;51784;-56
2022/04/14 02:10:38;;;;;;;;;12.75;12.75;;;;;;;;5102335;27;51179;-58
2022/04/14 02:13:04;;;;;;;;;13.00;13.00;;;;;;;;5105797;27;51217;-55
2022/04/14 02:15:29;;;;;;;;;13.25;12.75;;;;;;;;5098069;27;51076;-56
2022/04/14 02:17:54;;;;;;;;;15.50;13.50;;;;;;;;5108922;27;52540;-55
2022/04/14 02:20:19;;;;;;;;;13.75;12.75;;;;;;;;5113774;27;52251;-57
2022/04/14 02:22:45;;;;;;;;;15.00;13.75;;;;;;;;5109648;27;50936;-56
2022/04/14 02:25:10;;;;;;;;;14.25;13.00;;;;;;;;5112911;27;50802;-55
2022/04/14 02:27:35;;;;;;;;;15.50;14.00;;;;;;;;5097214;27;52239;-56
2022/04/14 02:30:00;;;;;;;;;13.75;13.75;;;;;;;;5104920;27;51467;-56
2022/04/14 02:32:26;;;;;;;;;15.75;14.75;;;;;;;;5106804;27;50876;-56
2022/04/14 02:34:51;;;;;;;;;15.00;13.75;;;;;;;;5096770;27;51145;-54
2022/04/14 02:37:16;;;;;;;;;12.50;12.00;;;;;;;;5107302;27;50971;-57
2022/04/14 02:39:41;;;;;;;;;16.67;14.00;;;;;;;;5109988;27;51178;-56
2022/04/14 02:42:07;;;;;;;;;16.75;14.00;;;;;;;;5105446;27;51238;-54
2022/04/14 02:44:32;;;;;;;;;16.25;15.00;;;;;;;;5094496;27;51141;-55
2022/04/14 02:46:57;;;;;;;;;14.25;14.00;;;;;;;;5111205;27;50930;-54
2022/04/14 02:49:23;;;;;;;;;15.50;15.00;;;;;;;;5101117;27;51103;-54
2022/04/14 02:51:48;;;;;;;;;12.00;11.00;;;;;;;;5110116;27;50839;-54
2022/04/14 02:54:13;;;;;;;;;15.00;14.00;;;;;;;;5114401;27;51083;-56
2022/04/14 02:56:39;;;;;;;;;15.75;14.75;;;;;;;;5112634;27;51870;-54
2022/04/14 02:59:04;;;;;;;;;12.50;12.50;;;;;;;;5114674;27;51468;-54
2022/04/14 03:01:30;;;;;;;;;12.25;12.00;;;;;;;;5109892;27;51288;-55
2022/04/14 03:03:55;;;;;;;;;15.25;14.50;;;;;;;;5114506;27;51232;-55
2022/04/14 03:06:20;;;;;;;;;14.33;14.33;;;;;;;;5101525;27;51826;-55
2022/04/14 03:08:45;;;;;;;;;17.50;15.00;;;;;;;;5108105;27;51137;-54
2022/04/14 03:11:12;;;;;;;;;18.00;17.00;;;;;;;;5111016;27;51211;-54
2022/04/14 03:13:38;;;;;;;;;16.33;15.00;;;;;;;;5114555;27;51166;-55
2022/04/14 03:16:03;;;;;;;;;14.33;13.00;;;;;;;;5111510;27;51717;-56
2022/04/14 03:18:29;;;;;;;;;14.00;13.67;;;;;;;;5092684;27;50995;-55
2022/04/14 03:20:54;;;;;;;;;13.67;13.00;;;;;;;;5113077;27;51170;-55
2022/04/14 03:23:19;;;;;;;;;13.25;13.00;;;;;;;;5113435;27;51115;-58
2022/04/14 03:25:45;;;;;;;;;12.75;12.00;;;;;;;;5108850;27;51949;-54
2022/04/14 03:28:10;;;;;;;;;12.33;12.33;;;;;;;;5098405;27;50978;-56
2022/04/14 03:30:35;;;;;;;;;15.00;15.00;;;;;;;;5111937;27;51338;-54
2022/04/14 03:33:01;;;;;;;;;14.50;14.00;;;;;;;;5113150;27;51056;-55
2022/04/14 03:35:26;;;;;;;;;16.50;16.50;;;;;;;;5098187;27;51833;-54
2022/04/14 03:37:51;;;;;;;;;14.25;14.00;;;;;;;;5105987;27;50932;-54
2022/04/14 03:40:16;;;;;;;;;16.50;14.50;;;;;;;;5100681;27;51241;-54
2022/04/14 03:42:42;;;;;;;;;19.50;19.25;;;;;;;;5104790;27;51236;-54
2022/04/14 03:45:07;;;;;;;;;19.25;19.25;;;;;;;;5111570;27;51106;-56
2022/04/14 03:47:32;;;;;;;;;22.25;21.00;;;;;;;;5100081;27;51156;-54
2022/04/14 03:49:57;;;;;;;;;22.00;20.75;;;;;;;;5111542;27;50985;-54
2022/04/14 03:52:23;;;;;;;;;23.25;22.25;;;;;;;;5100629;27;50792;-56
2022/04/14 03:54:48;;;;;;;;;22.25;22.25;;;;;;;;5093856;27;51883;-55
2022/04/14 03:57:13;;;;;;;;;23.50;22.50;;;;;;;;5096576;27;51067;-55
2022/04/14 03:59:38;;;;;;;;;24.75;24.75;;;;;;;;5110856;27;50951;-56
2022/04/14 04:02:04;;;;;;;;;20.75;20.75;;;;;;;;5114057;27;50852;-55
2022/04/14 04:04:31;;;;;;;;;23.00;22.00;;;;;;;;5113170;27;52825;-55
2022/04/14 04:06:56;;;;;;;;;24.00;23.25;;;;;;;;5103851;27;51173;-55
2022/04/14 04:09:21;;;;;;;;;22.00;22.00;;;;;;;;5108764;27;51142;-53
2022/04/14 04:11:46;;;;;;;;;25.75;22.25;;;;;;;;5106811;27;51103;-55
2022/04/14 04:14:12;;;;;;;;;26.50;26.00;;;;;;;;5112201;27;52224;-56
2022/04/14 04:16:37;;;;;;;;;27.75;26.50;;;;;;;;5109629;27;50988;-54
2022/04/14 04:19:02;;;;;;;;;23.50;23.00;;;;;;;;5111439;27;50941;-53
2022/04/14 04:21:29;;;;;;;;;21.00;21.00;;;;;;;;5107790;27;51152;-53
2022/04/14 04:23:54;;;;;;;;;25.75;24.75;;;;;;;;5111312;27;52442;-55
2022/04/14 04:26:19;;;;;;;;;30.25;26.50;;;;;;;;5102090;27;51109;-55
2022/04/14 04:28:44;;;;;;;;;27.25;25.25;;;;;;;;5116744;27;50893;-54
2022/04/14 04:31:10;;;;;;;;;27.50;25.25;;;;;;;;5110572;27;51100;-55
2022/04/14 04:33:35;;;;;;;;;23.50;23.50;;;;;;;;5115694;27;51575;-56
2022/04/14 04:36:00;;;;;;;;;22.50;22.50;;;;;;;;5111527;27;51024;-53
2022/04/14 04:38:26;;;;;;;;;25.75;24.50;;;;;;;;5110752;27;51157;-54
2022/04/14 04:40:51;;;;;;;;;26.00;23.50;;;;;;;;5114951;27;51026;-55
2022/04/14 04:43:16;;;;;;;;;28.50;26.00;;;;;;;;5115001;27;51714;-54
2022/04/14 04:45:42;;;;;;;;;28.00;26.50;;;;;;;;5111324;27;51351;-54
2022/04/14 04:48:07;;;;;;;;;22.75;21.75;;;;;;;;5109840;27;51190;-53
2022/04/14 04:50:32;;;;;;;;;26.75;26.00;;;;;;;;5105586;27;51401;-53
2022/04/14 04:52:57;;;;;;;;;28.75;27.75;;;;;;;;5115503;27;51278;-55
2022/04/14 04:55:23;;;;;;;;;26.25;24.00;;;;;;;;5110348;27;51145;-54
2022/04/14 04:57:48;;;;;;;;;27.00;25.50;;;;;;;;5110064;27;51021;-53
2022/04/14 05:00:13;;;;;;;;;25.50;25.50;;;;;;;;5115157;27;51380;-56
2022/04/14 05:02:39;;;;;;;;;25.75;25.75;;;;;;;;5112603;27;52406;-53
2022/04/14 05:05:04;;;;;;;;;32.00;29.25;;;;;;;;5103318;27;51179;-53
2022/04/14 05:07:30;;;;;;;;;27.75;27.25;;;;;;;;5097693;27;51229;-55
2022/04/14 05:09:55;;;;;;;;;32.00;29.75;;;;;;;;5107526;27;51318;-54
2022/04/14 05:12:20;;;;;;;;;27.00;26.00;;;;;;;;5108401;27;51896;-56
2022/04/14 05:14:45;;;;;;;;;30.00;29.75;;;;;;;;5097878;27;51195;-53
2022/04/14 05:17:10;;;;;;;;;30.25;28.75;;;;;;;;5115971;27;51143;-55
2022/04/14 05:19:36;;;;;;;;;25.00;24.50;;;;;;;;5116108;27;51282;-56
2022/04/14 05:22:03;;;;;;;;;27.50;26.00;;;;;;;;5110967;27;52065;-56
2022/04/14 05:24:30;;;;;;;;;30.75;27.25;;;;;;;;5109055;27;50976;-53
2022/04/14 05:26:55;;;;;;;;;28.75;28.50;;;;;;;;5115464;27;51134;-54
2022/04/14 05:29:20;;;;;;;;;30.50;29.75;;;;;;;;5111575;27;50952;-56
2022/04/14 05:31:45;;;;;;;;;35.00;32.00;;;;;;;;5113749;27;52943;-54
2022/04/14 05:34:11;;;;;;;;;28.75;27.75;;;;;;;;5095216;27;51976;-56
2022/04/14 05:36:36;;;;;;;;;31.00;28.00;;;;;;;;5094473;27;50992;-54
2022/04/14 05:39:01;;;;;;;;;33.25;32.00;;;;;;;;5102463;27;51384;-56
2022/04/14 05:41:26;;;;;;;;;28.75;28.50;;;;;;;;5100828;27;51668;-55
2022/04/14 05:43:51;;;;;;;;;35.75;32.50;;;;;;;;5107126;27;52308;-54
2022/04/14 05:46:17;;;;;;;;;33.50;31.75;;;;;;;;5094971;27;51320;-56
2022/04/14 05:48:42;;;;;;;;;31.00;30.25;;;;;;;;5103210;27;51438;-54
2022/04/14 05:51:07;;;;;;;;;35.25;33.00;;;;;;;;5097128;27;52016;-56
2022/04/14 05:53:32;;;;;;;;;36.00;33.75;;;;;;;;5100408;27;51432;-55
2022/04/14 05:55:58;;;;;;;;;37.25;33.75;;;;;;;;5097297;27;51061;-55
2022/04/14 05:58:23;;;;;;;;;29.75;29.75;;;;;;;;5091345;27;51310;-56
2022/04/14 06:00:48;;;;;;;;;37.75;33.25;;;;;;;;5107410;27;51984;-54
2022/04/14 06:03:14;;;;;;;;;33.50;32.25;;;;;;;;5114142;27;50963;-55
2022/04/14 06:05:39;;;;;;;;;36.25;33.50;;;;;;;;5100164;27;51113;-56
2022/04/14 06:08:04;;;;;;;;;38.00;33.25;;;;;;;;5114848;27;51315;-54
2022/04/14 06:10:30;;;;;;;;;41.00;35.50;;;;;;;;5110128;27;51119;-53
2022/04/14 06:12:55;;;;;;;;;30.75;29.75;;;;;;;;5107417;27;50975;-56
2022/04/14 06:15:20;;;;;;;;;35.50;32.50;;;;;;;;5099015;27;51244;-55
2022/04/14 06:17:46;;;;;;;;;35.50;31.75;;;;;;;;5104313;27;51364;-54
2022/04/14 06:20:11;;;;;;;;;40.25;33.50;;;;;;;;5093796;27;53013;-55
2022/04/14 06:22:38;;;;;;;;;30.75;30.00;;;;;;;;5106488;27;51075;-53
2022/04/14 06:25:04;;;;;;;;;31.25;29.75;;;;;;;;5103168;27;51163;-54
2022/04/14 06:27:29;;;;;;;;;35.50;32.25;;;;;;;;5088981;27;51055;-55
2022/04/14 06:29:54;;;;;;;;;39.50;35.00;;;;;;;;5099235;27;51692;-53
2022/04/14 06:32:20;;;;;;;;;46.75;36.75;;;;;;;;5109182;27;51006;-56
2022/04/14 06:34:45;;;;;;;;;40.75;34.25;;;;;;;;5104094;27;50966;-56
2022/04/14 06:37:10;;;;;;;;;38.25;34.00;;;;;;;;5101172;27;51192;-54
2022/04/14 06:39:35;;;;;;;;;39.50;34.00;;;;;;;;5103708;27;52773;-56
2022/04/14 06:42:00;;;;;;;;;42.50;37.00;;;;;;;;5107152;27;51133;-53
2022/04/14 06:44:26;;;;;;;;;41.00;35.00;;;;;;;;5106550;27;50978;-57
2022/04/14 06:46:51;;;;;;;;;41.25;36.00;;;;;;;;5105068;27;51039;-54
2022/04/14 06:49:16;;;;;;;;;41.25;35.25;;;;;;;;5103924;27;51630;-56
2022/04/14 06:51:42;;;;;;;;;38.75;35.25;;;;;;;;5111549;27;51154;-54
2022/04/14 06:54:07;;;;;;;;;37.50;33.75;;;;;;;;5093946;27;51341;-55
2022/04/14 06:56:32;;;;;;;;;37.75;34.75;;;;;;;;5109162;27;51094;-53
2022/04/14 06:58:58;;;;;;;;;38.25;35.25;;;;;;;;5113731;27;52728;-56
2022/04/14 07:01:23;;;;;;;;;35.00;32.25;;;;;;;;5112661;27;50874;-54
2022/04/14 07:03:48;;;;;;;;;34.75;32.25;;;;;;;;5112974;27;51465;-54
2022/04/14 07:06:14;;;;;;;;;32.50;30.00;;;;;;;;5114670;27;50896;-56
2022/04/14 07:08:39;;;;;;;;;36.00;32.50;;;;;;;;5108962;27;51943;-55
2022/04/14 07:11:05;;;;;;;;;35.75;32.75;;;;;;;;5110148;27;51175;-55
2022/04/14 07:13:30;;;;;;;;;32.50;29.50;;;;;;;;5106308;27;50940;-56
2022/04/14 07:15:57;;;;;;;;;35.75;32.75;;;;;;;;5112628;27;51221;-54
2022/04/14 07:18:23;;;;;;;;;34.50;31.75;;;;;;;;5113327;27;52030;-55
2022/04/14 07:20:48;;;;;;;;;38.00;33.00;;;;;;;;5107209;27;51000;-54
2022/04/14 07:23:14;;;;;;;;;42.25;36.00;;;;;;;;5109671;27;51246;-53
2022/04/14 07:25:39;;;;;;;;;36.50;33.00;;;;;;;;5114278;27;51306;-54
2022/04/14 07:28:04;;;;;;;;;37.75;34.00;;;;;;;;5102018;27;51164;-53
2022/04/14 07:30:31;;;;;;;;;32.00;30.00;;;;;;;;5109339;27;51044;-52
2022/04/14 07:32:57;;;;;;;;;31.75;30.75;;;;;;;;5112989;27;51003;-54
2022/04/14 07:35:22;;;;;;;;;34.50;31.00;;;;;;;;5114077;27;50892;-54
2022/04/14 07:37:48;;;;;;;;;38.00;33.00;;;;;;;;5111875;27;51269;-55
2022/04/14 07:40:14;;;;;;;;;39.00;34.75;;;;;;;;5110452;27;50926;-54
2022/04/14 07:42:40;;;;;;;;;32.25;31.00;;;;;;;;5095528;27;51399;-54
2022/04/14 07:45:07;;;;;;;;;38.50;32.75;;;;;;;;5114071;27;50967;-54
2022/04/14 07:47:32;;;;;;;;;35.25;32.50;;;;;;;;5113025;27;50986;-53
2022/04/14 07:49:57;;;;;;;;;28.75;28.75;;;;;;;;5112028;27;50988;-53
2022/04/14 07:52:23;;;;;;;;;33.25;31.50;;;;;;;;5094889;27;51523;-54
2022/04/14 07:54:48;;;;;;;;;40.25;35.25;;;;;;;;5113936;27;51169;-53
2022/04/14 07:57:13;;;;;;;;;43.75;37.00;;;;;;;;5113340;27;51884;-54
2022/04/14 07:59:38;;;;;;;;;41.25;34.75;;;;;;;;5113571;27;51053;-53
2022/04/14 08:02:04;;;;;;;;;43.25;35.75;;;;;;;;5103591;27;51024;-54
2022/04/14 08:04:32;;;;;;;;;37.50;34.50;;;;;;;;5106762;27;51064;-53
2022/04/14 08:06:57;;;;;;;;;48.00;39.00;;;;;;;;5113061;27;51088;-55
2022/04/14 08:09:23;;;;;;;;;51.75;43.00;;;;;;;;5101951;27;51066;-55
2022/04/14 08:11:48;;;;;;;;;39.00;34.50;;;;;;;;5113136;27;51108;-50
2022/04/14 08:14:13;;;;;;;;;39.75;32.75;;;;;;;;5112559;27;51109;-57
2022/04/14 08:16:38;;;;;;;;;36.25;32.75;;;;;;;;5113453;27;50948;-55
2022/04/14 08:19:04;;;;;;;;;43.25;37.50;;;;;;;;5113369;27;50872;-57
2022/04/14 08:21:29;;;;;;;;;39.00;34.00;;;;;;;;5113480;27;50978;-50
2022/04/14 08:23:54;;;;;;;;;29.75;27.00;;;;;;;;5102654;27;51456;-51
2022/04/14 08:26:21;;;;;;;;;28.25;26.25;;;;;;;;5111797;27;51116;-53
2022/04/14 08:28:47;;;;;;;;;35.00;31.75;;;;;;;;5113235;27;51021;-53
2022/04/14 08:31:12;;;;;;;;;31.25;30.25;;;;;;;;5094489;27;51222;-55
2022/04/14 08:33:38;;;;;;;;;26.00;25.50;;;;;;;;5104964;27;51312;-53
2022/04/14 08:36:12;;;;;;;;;26.75;26.50;;;;;;;;5089805;27;52619;-54
2022/04/14 08:38:38;;;;;;;;;29.33;28.00;;;;;;;;5106440;27;51123;-57
2022/04/14 08:41:06;;;;;;;;;27.67;26.67;;;;;;;;5113075;27;51172;-55
2022/04/14 08:43:34;;;;;;;;;25.33;24.67;;;;;;;;5107071;27;51075;-56
2022/04/14 08:46:00;;;;;;;;;27.00;27.00;;;;;;;;5099079;27;51159;-54
2022/04/14 08:48:26;;;;;;;;;28.33;24.67;;;;;;;;5112376;27;50945;-55
2022/04/14 08:50:51;;;;;;;;;27.67;26.33;;;;;;;;5113208;27;51023;-54
2022/04/14 08:53:23;;;;;;;;;25.00;25.00;;;;;;;;5110272;27;50967;-54
2022/04/14 08:55:48;;;;;;;;;23.33;22.67;;;;;;;;5112800;27;50944;-55
2022/04/14 08:58:15;;;;;;;;;29.00;28.00;;;;;;;;5112768;27;50922;-56
2022/04/14 09:00:40;;;;;;;;;28.67;28.00;;;;;;;;5112025;27;51183;-55
2022/04/14 09:03:06;;;;;;;;;25.50;25.50;;;;;;;;5111723;27;51082;-57
2022/04/14 09:05:31;;;;;;;;;26.33;25.67;;;;;;;;5088436;27;53297;-54
2022/04/14 09:07:56;;;;;;;;;24.33;23.33;;;;;;;;5112690;27;50995;-56
2022/04/14 09:10:22;;;;;;;;;26.33;25.67;;;;;;;;5100586;27;51322;-56
2022/04/14 09:12:48;;;;;;;;;26.67;26.67;;;;;;;;5113960;27;51365;-57
2022/04/14 09:15:14;;;;;;;;;28.33;27.67;;;;;;;;5112944;27;52731;-57
2022/04/14 09:17:40;;;;;;;;;25.67;25.67;;;;;;;;5115832;27;51020;-54
2022/04/14 09:20:24;;;;;;;;;26.67;25.00;;;;;;;;5115851;27;50883;-53
2022/04/14 09:23:09;;;;;;;;;28.75;27.00;;;;;;;;5116146;27;51027;-55
2022/04/14 09:25:34;;;;;;;;;28.67;26.67;;;;;;;;5115125;27;51868;-55
2022/04/14 09:28:07;;;;;;;;;28.00;25.25;;;;;;;;5115500;27;51145;-56
2022/04/14 09:30:32;;;;;;;;;24.00;23.75;;;;;;;;5097274;27;51057;-58
2022/04/14 09:32:57;;;;;;;;;25.50;24.50;;;;;;;;5115816;27;51510;-56
2022/04/14 09:35:23;;;;;;;;;24.33;22.33;;;;;;;;5105795;27;52407;-58
2022/04/14 09:38:02;;;;;;;;;22.67;22.00;;;;;;;;5112775;27;50988;-56
2022/04/14 09:40:33;;;;;;;;;23.33;22.33;;;;;;;;5115787;27;51063;-55
2022/04/14 09:42:58;;;;;;;;;25.25;24.50;;;;;;;;5115456;27;51313;-55
2022/04/14 09:45:28;;;;;;;;;26.00;25.50;;;;;;;;5107618;27;52054;-54
2022/04/14 09:47:54;;;;;;;;;40.00;35.25;;;;;;;;5114539;27;51013;-55
2022/04/14 09:50:29;;;;;;;;;46.75;39.75;;;;;;;;5114376;27;51177;-56
2022/04/14 09:52:57;;;;;;;;;18.67;18.00;;;;;;;;5115424;27;50984;-55
2022/04/14 09:55:22;;;;;;;;;20.33;20.33;;;;;;;;5109614;27;51157;-55
2022/04/14 09:58:06;;;;;;;;;21.67;20.67;;;;;;;;5111619;27;51034;-54
2022/04/14 10:00:38;;;;;;;;;21.33;20.67;;;;;;;;5115104;27;51066;-58
2022/04/14 10:03:08;;;;;;;;;17.00;17.00;;;;;;;;5090512;27;51305;-56
2022/04/14 10:05:34;;;;;;;;;16.00;15.00;;;;;;;;5096245;27;51951;-56
2022/04/14 10:07:59;;;;;;;;;18.00;18.00;;;;;;;;5100509;27;50874;-55
2022/04/14 10:10:24;;;;;;;;;13.67;13.67;;;;;;;;5108146;27;51197;-57
2022/04/14 10:12:50;;;;;;;;;14.33;14.33;;;;;;;;5091015;27;51317;-54
2022/04/14 10:15:17;;;;;;;;;17.00;16.00;;;;;;;;5114125;27;50863;-56
2022/04/14 10:17:43;;;;;;;;;13.00;12.00;;;;;;;;5102607;27;50971;-55
2022/04/14 10:20:09;;;;;;;;;13.67;13.00;;;;;;;;5114749;27;51262;-56
2022/04/14 10:22:35;;;;;;;;;13.67;11.67;;;;;;;;5114570;27;51147;-55
2022/04/14 10:25:00;;;;;;;;;10.00;9.67;;;;;;;;5112483;27;51150;-56
2022/04/14 10:27:27;;;;;;;;;13.33;13.33;;;;;;;;5103005;27;51017;-57
2022/04/14 10:29:52;;;;;;;;;12.33;11.00;;;;;;;;5095686;27;51270;-56
2022/04/14 10:32:18;;;;;;;;;14.00;14.00;;;;;;;;5113731;27;51239;-56
2022/04/14 10:34:44;;;;;;;;;13.33;13.33;;;;;;;;5106340;27;51028;-56
2022/04/14 10:37:12;;;;;;;;;14.00;14.00;;;;;;;;5107373;27;50807;-56
2022/04/14 10:39:41;;;;;;;;;14.67;13.33;;;;;;;;5101641;27;50939;-56
2022/04/14 10:42:08;;;;;;;;;21.67;21.00;;;;;;;;5114236;27;50952;-55
2022/04/14 10:44:44;;;;;;;;;13.00;13.00;;;;;;;;5108887;27;52778;-56
2022/04/14 10:47:09;;;;;;;;;10.67;10.00;;;;;;;;5110247;27;51052;-56
2022/04/14 10:49:34;;;;;;;;;11.67;11.33;;;;;;;;5112101;27;50862;-55
2022/04/14 10:52:20;;;;;;;;;15.00;13.67;;;;;;;;5113147;27;51196;-57
2022/04/14 10:54:56;;;;;;;;;13.67;12.67;;;;;;;;5108796;27;51002;-54
2022/04/14 10:57:40;;;;;;;;;10.00;9.00;;;;;;;;5105685;27;51030;-56
2022/04/14 11:00:20;;;;;;;;;12.00;11.33;;;;;;;;5085778;27;50958;-54
2022/04/14 11:03:04;;;;;;;;;4.33;4.33;;;;;;;;5111541;27;51012;-55
2022/04/14 11:05:41;;;;;;;;;14.33;14.00;;;;;;;;5113025;27;51074;-56
2022/04/14 11:08:19;;;;;;;;;13.00;11.33;;;;;;;;5113314;27;50954;-56
2022/04/14 11:11:03;;;;;;;;;13.67;13.67;;;;;;;;5110752;27;51083;-57
2022/04/14 11:13:47;;;;;;;;;14.67;13.67;;;;;;;;5106082;27;51253;-57
2022/04/14 11:16:31;;;;;;;;;11.33;11.00;;;;;;;;5113190;27;51799;-54
2022/04/14 11:19:22;;;;;;;;;13.00;13.00;;;;;;;;5112751;27;51047;-54
2022/04/14 11:22:07;;;;;;;;;10.33;10.00;;;;;;;;5090619;27;51364;-55
2022/04/14 11:24:35;;;;;;;;;12.00;11.33;;;;;;;;5113659;27;50877;-55
2022/04/14 11:27:16;;;;;;;;;12.67;12.00;;;;;;;;5113002;27;51878;-54
2022/04/14 11:29:43;;;;;;;;;11.33;11.33;;;;;;;;5094304;27;51072;-56
2022/04/14 11:32:09;;;;;;;;;12.00;12.00;;;;;;;;5104177;27;51104;-56
2022/04/14 11:34:35;;;;;;;;;12.67;12.67;;;;;;;;5104281;27;51206;-56
2022/04/14 11:37:03;;;;;;;;;16.00;15.67;;;;;;;;5111216;27;51319;-57
2022/04/14 11:39:29;;;;;;;;;15.00;15.00;;;;;;;;5096445;27;50992;-55
2022/04/14 11:41:55;;;;;;;;;14.67;14.33;;;;;;;;5112701;27;51291;-56
2022/04/14 11:44:30;;;;;;;;;19.33;17.33;;;;;;;;5103631;27;51308;-55
2022/04/14 11:46:56;;;;;;;;;14.00;14.00;;;;;;;;5107111;27;51039;-53
2022/04/14 11:49:42;;;;;;;;;15.67;15.67;;;;;;;;5112555;27;51139;-56
2022/04/14 11:52:09;;;;;;;;;14.00;14.00;;;;;;;;5112499;27;50898;-56
2022/04/14 11:54:35;;;;;;;;;13.00;13.00;;;;;;;;5106272;27;50869;-55
2022/04/14 11:57:06;;;;;;;;;11.00;10.00;;;;;;;;5109376;27;51971;-56
2022/04/14 11:59:33;;;;;;;;;12.67;12.67;;;;;;;;5112613;27;50887;-55
2022/04/14 12:02:06;;;;;;;;;10.33;10.33;;;;;;;;5112510;27;50779;-57
2022/04/14 12:04:35;;;;;;;;;10.33;10.33;;;;;;;;5106903;27;50875;-57
2022/04/14 12:07:01;;;;;;;;;7.00;7.00;;;;;;;;5111848;27;52039;-55
2022/04/14 12:09:26;;;;;;;;;8.00;8.00;;;;;;;;5100685;27;51102;-56
2022/04/14 12:11:52;;;;;;;;;9.67;6.00;;;;;;;;5111611;27;51202;-57
2022/04/14 12:14:17;;;;;;;;;8.00;8.00;;;;;;;;5108577;27;51020;-57
2022/04/14 12:16:47;;;;;;;;;8.00;7.00;;;;;;;;5091740;27;52799;-55
2022/04/14 12:19:12;;;;;;;;;5.00;5.00;;;;;;;;5112822;27;51053;-54
2022/04/14 12:21:37;;;;;;;;;7.67;7.67;;;;;;;;5112644;27;51013;-57
2022/04/14 12:24:03;;;;;;;;;10.00;10.00;;;;;;;;5111482;27;51352;-56
2022/04/14 12:26:30;;;;;;;;;6.67;6.67;;;;;;;;5092240;27;51104;-57
2022/04/14 12:28:55;;;;;;;;;9.00;8.00;;;;;;;;5112506;27;51259;-56
2022/04/14 12:31:20;;;;;;;;;8.00;8.00;;;;;;;;5112284;27;51070;-60
2022/04/14 12:33:59;;;;;;;;;5.00;3.33;;;;;;;;5112497;27;51875;-56
2022/04/14 12:36:37;;;;;;;;;7.33;7.33;;;;;;;;5099267;27;52319;-57
2022/04/14 12:39:04;;;;;;;;;6.33;6.33;;;;;;;;5112085;27;50939;-57
2022/04/14 12:41:34;;;;;;;;;9.33;8.33;;;;;;;;5111997;27;51322;-55
2022/04/14 12:43:59;;;;;;;;;9.33;9.00;;;;;;;;5112121;27;50960;-56
2022/04/14 12:46:27;;;;;;;;;7.00;6.00;;;;;;;;5112065;27;52250;-57
2022/04/14 12:48:59;;;;;;;;;6.00;6.00;;;;;;;;5113373;27;50986;-57
2022/04/14 12:51:32;;;;;;;;;5.00;4.00;;;;;;;;5096448;27;51280;-56
2022/04/14 12:53:57;;;;;;;;;5.00;5.00;;;;;;;;5109097;27;50956;-57
2022/04/14 12:56:23;;;;;;;;;5.00;5.00;;;;;;;;5106602;27;51127;-56
2022/04/14 12:59:07;;;;;;;;;7.67;7.67;;;;;;;;5115686;27;51051;-56
2022/04/14 13:01:48;;;;;;;;;5.00;4.00;;;;;;;;5115549;27;51348;-57
2022/04/14 13:04:13;;;;;;;;;3.33;3.33;;;;;;;;5107207;27;51307;-54
2022/04/14 13:06:38;;;;;;;;;5.00;5.00;;;;;;;;5115261;27;51938;-56
2022/04/14 13:09:16;;;;;;;;;3.67;3.67;;;;;;;;5109140;27;51125;-55
2022/04/14 13:11:42;;;;;;;;;6.00;5.67;;;;;;;;5115645;27;50942;-56
2022/04/14 13:14:20;;;;;;;;;6.00;5.00;;;;;;;;5109671;27;51139;-56
2022/04/14 13:16:46;;;;;;;;;4.00;4.00;;;;;;;;5114903;27;51885;-59
2022/04/14 13:19:11;;;;;;;;;6.00;6.00;;;;;;;;5115096;27;51026;-57
2022/04/14 13:21:37;;;;;;;;;5.67;5.67;;;;;;;;5115306;27;51039;-58
2022/04/14 13:24:02;;;;;;;;;5.00;5.00;;;;;;;;5112144;27;51066;-57
2022/04/14 13:26:28;;;;;;;;;6.33;6.33;;;;;;;;5115284;27;51861;-57
2022/04/14 13:28:53;;;;;;;;;7.33;6.67;;;;;;;;5115283;27;51077;-57
2022/04/14 13:31:18;;;;;;;;;4.67;4.67;;;;;;;;5115241;27;51264;-62
2022/04/14 13:33:43;;;;;;;;;9.00;7.33;;;;;;;;5114054;27;51221;-57
2022/04/14 13:36:08;;;;;;;;;5.00;5.00;;;;;;;;5115006;27;51983;-57
2022/04/14 13:38:34;;;;;;;;;5.00;5.00;;;;;;;;5114860;27;51128;-57
2022/04/14 13:40:59;;;;;;;;;6.00;5.33;;;;;;;;5115173;27;50909;-56
2022/04/14 13:43:24;;;;;;;;;4.33;4.33;;;;;;;;5108511;27;50930;-56
2022/04/14 13:45:49;;;;;;;;;5.33;5.33;;;;;;;;5113853;27;51805;-56
2022/04/14 13:48:15;;;;;;;;;4.00;3.33;;;;;;;;5114912;27;51162;-55
2022/04/14 13:50:43;;;;;;;;;3.33;3.33;;;;;;;;5114990;27;51383;-57
2022/04/14 13:53:10;;;;;;;;;3.67;3.67;;;;;;;;5108521;27;51266;-57
2022/04/14 13:55:37;;;;;;;;;4.00;4.00;;;;;;;;5094867;27;52207;-57
2022/04/14 13:58:02;;;;;;;;;4.00;4.00;;;;;;;;5114356;27;50971;-57
2022/04/14 14:00:27;;;;;;;;;3.00;2.00;;;;;;;;5114314;27;51213;-55
2022/04/14 14:02:52;;;;;;;;;3.00;3.00;;;;;;;;5111381;27;50896;-56
2022/04/14 14:05:19;;;;;;;;;2.00;2.00;;;;;;;;5113160;27;51708;-56
2022/04/14 14:07:44;;;;;;;;;4.00;4.00;;;;;;;;5114737;27;50891;-56
2022/04/14 14:10:09;;;;;;;;;6.00;6.00;;;;;;;;5101938;27;51008;-60
2022/04/14 14:12:39;;;;;;;;;3.00;3.00;;;;;;;;5095946;27;50905;-53
2022/04/14 14:15:05;;;;;;;;;3.00;3.00;;;;;;;;5113881;27;51753;-57
2022/04/14 14:17:30;;;;;;;;;4.00;3.67;;;;;;;;5113920;27;51068;-55
2022/04/14 14:19:56;;;;;;;;;7.00;6.00;;;;;;;;5114368;27;51012;-55
2022/04/14 14:22:21;;;;;;;;;1.00;1.00;;;;;;;;5114496;27;50957;-55